createdAt,value
2022-08-09T00:01:00.014Z,16.81
2022-08-09T00:04:08.569Z,16.73
2022-08-09T00:06:23.278Z,16.80
2022-08-09T00:08:51.843Z,16.89
2022-08-09T00:11:24.572Z,16.91
2022-08-09T00:13:55.683Z,16.94
2022-08-09T00:16:26.416Z,16.93
2022-08-09T00:19:09.225Z,16.76
2022-08-09T00:21:38.462Z,16.62
2022-08-09T00:24:24.305Z,16.59
2022-08-09T00:26:52.925Z,16.63
2022-08-09T00:29:39.418Z,16.36
2022-08-09T00:32:12.731Z,16.48
2022-08-09T00:34:40.801Z,16.48
2022-08-09T00:37:20.389Z,16.22
2022-08-09T00:40:12.532Z,16.43
2022-08-09T00:44:13.563Z,16.23
2022-08-09T00:45:26.702Z,15.99
2022-08-09T00:47:55.645Z,15.95
2022-08-09T00:50:24.318Z,15.92
2022-08-09T00:52:53.838Z,15.68
2022-08-09T00:56:03.658Z,16.00
2022-08-09T00:58:14.728Z,15.74
2022-08-09T01:00:54.685Z,16.01
2022-08-09T01:03:33.535Z,15.60
2022-08-09T01:06:13.902Z,15.70
2022-08-09T01:08:55.910Z,15.74
2022-08-09T01:11:38.086Z,15.73
2022-08-09T01:14:14.951Z,15.71
2022-08-09T01:16:49.406Z,15.64
2022-08-09T01:19:40.293Z,15.54
2022-08-09T01:22:37.884Z,15.62
2022-08-09T01:25:22.592Z,15.59
2022-08-09T01:27:57.871Z,15.41
2022-08-09T01:30:51.299Z,15.56
2022-08-09T01:33:20.346Z,15.73
2022-08-09T01:35:54.461Z,15.48
2022-08-09T01:38:27.279Z,15.74
2022-08-09T01:41:04.984Z,15.42
2022-08-09T01:43:41.826Z,14.50
2022-08-09T01:46:24.687Z,15.34
2022-08-09T01:48:59.883Z,15.38
2022-08-09T01:51:32.617Z,15.14
2022-08-09T01:54:04.140Z,15.32
2022-08-09T01:56:36.405Z,15.34
2022-08-09T01:59:10.675Z,15.08
2022-08-09T02:01:58.176Z,15.03
2022-08-09T02:04:30.785Z,14.63
2022-08-09T02:08:34.758Z,13.84
2022-08-09T02:10:07.616Z,14.63
2022-08-09T02:12:37.359Z,14.75
2022-08-09T02:15:16.824Z,14.96
2022-08-09T02:18:09.267Z,15.00
2022-08-09T02:20:41.823Z,14.50
2022-08-09T02:23:19.163Z,15.07
2022-08-09T02:25:55.578Z,14.89
2022-08-09T02:28:31.362Z,14.92
2022-08-09T02:31:05.947Z,15.00
2022-08-09T02:34:06.692Z,14.50
2022-08-09T02:36:33.161Z,13.98
2022-08-09T02:39:05.303Z,14.50
2022-08-09T02:41:39.819Z,13.59
2022-08-09T02:44:19.889Z,14.32
2022-08-09T02:47:04.485Z,13.74
2022-08-09T02:49:40.958Z,14.61
2022-08-09T02:52:14.769Z,14.74
2022-08-09T02:54:51.261Z,14.63
2022-08-09T02:57:23.954Z,14.62
2022-08-09T03:00:11.489Z,14.52
2022-08-09T03:02:58.248Z,14.68
2022-08-09T03:05:29.180Z,14.63
2022-08-09T03:07:57.934Z,14.67
2022-08-09T03:10:27.617Z,14.57
2022-08-09T03:12:56.413Z,14.53
2022-08-09T03:16:04.126Z,14.53
2022-08-09T03:18:16.128Z,14.36
2022-08-09T03:21:01.225Z,14.36
2022-08-09T03:23:29.902Z,14.23
2022-08-09T03:26:04.824Z,14.15
2022-08-09T03:28:34.981Z,14.34
2022-08-09T03:31:09.895Z,14.31
2022-08-09T03:33:54.532Z,14.33
2022-08-09T03:36:27.405Z,14.31
2022-08-09T03:38:57.445Z,14.27
2022-08-09T03:41:29.897Z,14.20
2022-08-09T03:44:12.904Z,14.22
2022-08-09T03:46:44.015Z,14.19
2022-08-09T03:49:17.493Z,14.23
2022-08-09T03:51:58.507Z,13.95
2022-08-09T03:54:32.362Z,13.95
2022-08-09T03:57:04.293Z,13.93
2022-08-09T03:59:53.241Z,14.05
2022-08-09T04:02:26.666Z,14.11
2022-08-09T04:05:06.479Z,14.13
2022-08-09T04:07:52.319Z,14.06
2022-08-09T04:10:28.701Z,14.19
2022-08-09T04:13:04.455Z,14.11
2022-08-09T04:16:18.177Z,14.04
2022-08-09T04:18:21.997Z,14.16
2022-08-09T04:20:52.092Z,13.66
2022-08-09T04:23:25.081Z,14.09
2022-08-09T04:25:55.393Z,14.19
2022-08-09T04:28:34.240Z,14.39
2022-08-09T04:31:09.011Z,14.43
2022-08-09T04:33:51.485Z,15.14
2022-08-09T04:36:25.651Z,15.17
2022-08-09T04:38:54.387Z,15.82
2022-08-09T04:41:23.836Z,16.12
2022-08-09T04:44:05.168Z,15.97
2022-08-09T04:46:57.179Z,15.50
2022-08-09T04:49:52.281Z,15.89
2022-08-09T04:52:12.131Z,16.59
2022-08-09T04:54:52.211Z,16.60
2022-08-09T04:57:23.749Z,16.29
2022-08-09T04:59:52.675Z,16.25
2022-08-09T05:02:21.096Z,16.00
2022-08-09T05:04:49.895Z,16.22
2022-08-09T05:07:29.307Z,16.27
2022-08-09T05:10:01.993Z,16.35
2022-08-09T05:12:31.234Z,16.43
2022-08-09T05:15:03.304Z,16.63
2022-08-09T05:18:38.429Z,16.73
2022-08-09T05:20:21.220Z,16.53
2022-08-09T05:23:53.844Z,16.43
2022-08-09T05:25:50.612Z,16.19
2022-08-09T05:28:19.841Z,15.87
2022-08-09T05:30:48.644Z,15.95
2022-08-09T05:33:19.695Z,15.88
2022-08-09T05:35:54.525Z,15.58
2022-08-09T05:38:26.538Z,15.98
2022-08-09T05:40:56.243Z,16.03
2022-08-09T05:43:24.671Z,16.23
2022-08-09T05:45:59.681Z,16.22
2022-08-09T05:48:32.891Z,16.40
2022-08-09T05:51:41.536Z,16.68
2022-08-09T05:53:57.217Z,17.02
2022-08-09T05:56:27.888Z,17.24
2022-08-09T05:58:58.626Z,17.19
2022-08-09T06:01:33.615Z,17.29
2022-08-09T06:04:05.846Z,17.34
2022-08-09T06:06:35.260Z,17.03
2022-08-09T06:09:10.054Z,17.27
2022-08-09T06:11:57.666Z,17.36
2022-08-09T06:14:26.462Z,17.52
2022-08-09T06:16:57.358Z,17.56
2022-08-09T06:19:25.439Z,17.55
2022-08-09T06:21:58.946Z,17.87
2022-08-09T06:24:29.086Z,18.04
2022-08-09T06:26:57.559Z,17.81
2022-08-09T06:29:27.014Z,18.00
2022-08-09T06:32:08.434Z,18.07
2022-08-09T06:34:43.928Z,18.19
2022-08-09T06:37:11.898Z,18.22
2022-08-09T06:39:57.682Z,18.44
2022-08-09T06:42:30.908Z,18.43
2022-08-09T06:45:09.244Z,18.75
2022-08-09T06:48:00.829Z,18.97
2022-08-09T06:50:31.062Z,19.25
2022-08-09T06:53:01.082Z,19.12
2022-08-09T06:55:33.047Z,18.93
2022-08-09T06:58:04.354Z,19.31
2022-08-09T07:00:57.405Z,19.69
2022-08-09T07:03:27.996Z,19.89
2022-08-09T07:06:02.794Z,20.02
2022-08-09T07:08:32.363Z,20.08
2022-08-09T07:11:03.457Z,20.11
2022-08-09T07:14:00.273Z,19.85
2022-08-09T07:16:42.209Z,19.82
2022-08-09T07:19:10.718Z,20.20
2022-08-09T07:21:55.207Z,20.55
2022-08-09T07:24:32.155Z,20.00
2022-08-09T07:27:27.251Z,20.29
2022-08-09T07:30:00.534Z,20.56
2022-08-09T07:32:32.318Z,20.68
2022-08-09T07:35:10.627Z,20.88
2022-08-09T07:37:43.428Z,20.85
2022-08-09T07:40:17.157Z,21.12
2022-08-09T07:43:07.140Z,21.39
2022-08-09T07:45:45.316Z,21.57
2022-08-09T07:48:25.742Z,21.76
2022-08-09T07:51:09.105Z,21.74
2022-08-09T07:54:05.119Z,21.84
2022-08-09T07:56:45.193Z,21.95
2022-08-09T07:59:33.894Z,22.08
2022-08-09T08:02:09.400Z,22.03
2022-08-09T08:04:38.966Z,21.87
2022-08-09T08:07:09.280Z,22.10
2022-08-09T08:09:51.714Z,22.03
2022-08-09T08:12:27.705Z,21.96
2022-08-09T08:14:59.469Z,22.03
2022-08-09T08:17:52.334Z,22.31
2022-08-09T08:20:16.255Z,22.67
2022-08-09T08:22:48.446Z,22.67
2022-08-09T08:25:16.879Z,22.62
2022-08-09T08:27:49.821Z,22.33
2022-08-09T08:30:19.560Z,22.66
2022-08-09T08:32:52.896Z,22.90
2022-08-09T08:35:22.941Z,23.08
2022-08-09T08:38:02.177Z,23.25
2022-08-09T08:40:37.678Z,23.41
2022-08-09T08:43:13.335Z,23.33
2022-08-09T08:45:53.194Z,22.68
2022-08-09T08:48:23.665Z,23.28
2022-08-09T08:50:58.733Z,23.57
2022-08-09T08:53:32.197Z,23.77
2022-08-09T08:56:06.663Z,23.57
2022-08-09T08:58:37.208Z,23.62
2022-08-09T09:01:09.131Z,22.82
2022-08-09T09:03:50.780Z,23.11
2022-08-09T09:06:21.072Z,23.45
2022-08-09T09:08:52.721Z,22.64
2022-08-09T09:11:29.891Z,23.14
2022-08-09T09:14:04.724Z,23.49
2022-08-09T09:16:35.526Z,23.52
2022-08-09T09:22:04.153Z,23.53
2022-08-09T09:24:35.232Z,23.56
2022-08-09T09:27:07.500Z,23.91
2022-08-09T09:30:08.521Z,23.76
2022-08-09T09:32:32.279Z,23.77
2022-08-09T09:35:09.044Z,23.50
2022-08-09T09:37:40.472Z,23.84
2022-08-09T09:40:11.881Z,23.96
2022-08-09T09:42:43.085Z,23.71
2022-08-09T09:45:25.799Z,23.87
2022-08-09T09:47:58.824Z,24.30
2022-08-09T09:50:49.230Z,24.29
2022-08-09T09:53:20.172Z,24.26
2022-08-09T09:56:04.553Z,23.50
2022-08-09T09:58:46.712Z,24.27
2022-08-09T10:01:31.229Z,23.84
2022-08-09T10:04:16.156Z,23.77
2022-08-09T10:06:51.867Z,24.18
2022-08-09T10:09:24.009Z,24.29
2022-08-09T10:12:12.172Z,24.44
2022-08-09T10:14:48.461Z,24.26
2022-08-09T10:17:50.787Z,24.49
2022-08-09T10:20:27.770Z,24.55
2022-08-09T10:23:17.336Z,24.51
2022-08-09T10:26:08.093Z,24.31
2022-08-09T10:28:37.578Z,24.19
2022-08-09T10:34:10.545Z,24.29
2022-08-09T10:36:50.150Z,24.28
2022-08-09T10:39:19.845Z,24.17
2022-08-09T10:41:48.424Z,24.33
2022-08-09T10:44:22.218Z,24.55
2022-08-09T10:48:13.494Z,24.76
2022-08-09T10:50:14.832Z,24.97
2022-08-09T10:53:02.336Z,24.46
2022-08-09T10:55:35.647Z,24.79
2022-08-09T10:58:33.578Z,24.81
2022-08-09T11:03:02.630Z,24.93
2022-08-09T11:04:30.085Z,24.84
2022-08-09T11:07:26.655Z,25.09
2022-08-09T11:09:59.688Z,25.20
2022-08-09T11:12:29.782Z,24.93
2022-08-09T11:15:01.536Z,24.70
2022-08-09T11:17:53.731Z,24.79
2022-08-09T11:20:47.589Z,24.77
2022-08-09T11:23:23.734Z,24.75
2022-08-09T11:25:54.831Z,24.94
2022-08-09T11:28:56.477Z,24.89
2022-08-09T11:31:49.803Z,24.83
2022-08-09T11:34:31.026Z,24.60
2022-08-09T11:37:01.508Z,24.62
2022-08-09T11:39:38.016Z,24.90
2022-08-09T11:42:14.657Z,25.01
2022-08-09T11:44:48.344Z,25.08
2022-08-09T11:47:16.776Z,25.26
2022-08-09T11:50:56.446Z,25.19
2022-08-09T11:53:55.197Z,25.31
2022-08-09T11:56:42.730Z,25.19
2022-08-09T11:59:29.829Z,25.23
2022-08-09T12:02:34.564Z,25.21
2022-08-09T12:04:58.207Z,25.44
2022-08-09T12:07:34.418Z,24.98
2022-08-09T12:10:14.305Z,25.31
2022-08-09T12:13:00.369Z,25.61
2022-08-09T12:15:50.204Z,25.37
2022-08-09T12:18:26.172Z,25.01
2022-08-09T12:21:00.712Z,25.24
2022-08-09T12:23:56.486Z,24.71
2022-08-09T12:26:26.038Z,25.01
2022-08-09T12:29:13.971Z,25.38
2022-08-09T12:32:01.691Z,25.63
2022-08-09T12:34:34.788Z,25.66
2022-08-09T12:37:09.785Z,25.54
2022-08-09T12:40:02.083Z,25.22
2022-08-09T12:42:30.974Z,24.74
2022-08-09T12:45:00.246Z,25.27
2022-08-09T12:47:37.259Z,25.36
2022-08-09T12:50:19.970Z,25.24
2022-08-09T12:53:09.480Z,25.34
2022-08-09T12:56:15.072Z,25.40
2022-08-09T12:58:28.864Z,25.53
2022-08-09T13:00:58.060Z,25.77
2022-08-09T13:03:53.142Z,25.51
2022-08-09T13:06:35.006Z,25.92
2022-08-09T13:09:09.385Z,25.48
2022-08-09T13:11:42.463Z,25.68
2022-08-09T13:14:42.412Z,25.45
2022-08-09T13:17:04.962Z,25.72
2022-08-09T13:20:08.483Z,25.45
2022-08-09T13:22:35.317Z,25.13
2022-08-09T13:25:14.344Z,25.06
2022-08-09T13:27:48.586Z,25.39
2022-08-09T13:30:50.669Z,25.68
2022-08-09T13:33:22.483Z,25.85
2022-08-09T13:36:38.496Z,26.07
2022-08-09T13:38:56.545Z,26.18
2022-08-09T13:41:55.054Z,26.09
2022-08-09T13:44:16.964Z,26.18
2022-08-09T13:47:29.588Z,26.21
2022-08-09T13:49:37.870Z,26.14
2022-08-09T13:52:09.676Z,26.36
2022-08-09T13:54:42.924Z,25.99
2022-08-09T13:57:36.846Z,26.16
2022-08-09T14:00:12.085Z,26.16
2022-08-09T14:03:02.721Z,26.11
2022-08-09T14:05:56.837Z,26.24
2022-08-09T14:08:20.702Z,25.95
2022-08-09T14:10:52.124Z,26.02
2022-08-09T14:13:28.471Z,25.95
2022-08-09T14:16:14.446Z,25.70
2022-08-09T14:18:46.035Z,25.86
2022-08-09T14:21:20.244Z,25.92
2022-08-09T14:23:55.563Z,26.08
2022-08-09T14:26:31.635Z,26.07
2022-08-09T14:29:03.197Z,26.10
2022-08-09T14:31:36.218Z,26.14
2022-08-09T14:34:30.949Z,26.15
2022-08-09T14:37:06.627Z,26.14
2022-08-09T14:39:46.550Z,25.83
2022-08-09T14:42:32.095Z,26.00
2022-08-09T14:46:46.714Z,25.51
2022-08-09T14:47:58.898Z,25.93
2022-08-09T14:50:29.502Z,25.91
2022-08-09T14:52:59.150Z,25.97
2022-08-09T14:55:32.574Z,25.83
2022-08-09T14:58:02.845Z,26.29
2022-08-09T15:00:32.049Z,26.26
2022-08-09T15:03:01.084Z,26.33
2022-08-09T15:05:29.518Z,26.30
2022-08-09T15:07:58.319Z,26.42
2022-08-09T15:10:28.291Z,26.32
2022-08-09T15:12:57.039Z,26.17
2022-08-09T15:15:28.527Z,26.37
2022-08-09T15:17:58.583Z,26.28
2022-08-09T15:21:54.801Z,26.11
2022-08-09T15:24:03.041Z,26.09
2022-08-09T15:26:05.120Z,26.25
2022-08-09T15:28:37.145Z,25.88
2022-08-09T15:31:14.742Z,26.21
2022-08-09T15:34:17.334Z,25.87
2022-08-09T15:36:34.733Z,25.98
2022-08-09T15:39:02.643Z,26.22
2022-08-09T15:41:33.513Z,26.34
2022-08-09T15:44:01.803Z,26.42
2022-08-09T15:46:33.410Z,26.17
2022-08-09T15:49:20.662Z,26.42
2022-08-09T15:52:05.127Z,26.26
2022-08-09T15:54:46.148Z,25.66
2022-08-09T15:57:35.732Z,26.35
2022-08-09T16:00:14.141Z,26.05
2022-08-09T16:02:43.535Z,25.58
2022-08-09T16:05:23.823Z,25.69
2022-08-09T16:07:51.892Z,26.10
2022-08-09T16:10:54.660Z,26.23
2022-08-09T16:13:20.939Z,26.18
2022-08-09T16:16:09.917Z,26.04
2022-08-09T16:18:45.729Z,25.86
2022-08-09T16:21:16.994Z,25.64
2022-08-09T16:23:54.768Z,26.00
2022-08-09T16:26:33.891Z,25.99
2022-08-09T16:29:11.180Z,25.87
2022-08-09T16:32:19.453Z,26.17
2022-08-09T16:34:56.010Z,26.11
2022-08-09T16:37:21.554Z,25.94
2022-08-09T16:40:10.498Z,25.77
2022-08-09T16:42:45.251Z,25.91
2022-08-09T16:45:19.672Z,25.77
2022-08-09T16:48:39.217Z,25.71
2022-08-09T16:50:38.631Z,25.82
2022-08-09T16:53:08.996Z,25.68
2022-08-09T16:55:58.870Z,25.78
2022-08-09T16:58:25.587Z,25.82
2022-08-09T17:00:55.394Z,25.80
2022-08-09T17:03:23.757Z,25.83
2022-08-09T17:06:06.853Z,25.80
2022-08-09T17:08:47.003Z,25.48
2022-08-09T17:11:40.907Z,25.70
2022-08-09T17:14:25.405Z,25.78
2022-08-09T17:17:01.065Z,25.79
2022-08-09T17:20:05.959Z,25.77
2022-08-09T17:22:24.832Z,25.58
2022-08-09T17:25:10.221Z,25.56
2022-08-09T17:27:49.054Z,25.58
2022-08-09T17:30:22.567Z,25.48
2022-08-09T17:33:00.727Z,25.54
2022-08-09T17:35:35.016Z,25.67
2022-08-09T17:38:13.971Z,25.64
2022-08-09T17:40:52.703Z,25.55
2022-08-09T17:43:33.699Z,25.63
2022-08-09T17:46:07.063Z,25.25
2022-08-09T17:48:39.896Z,25.32
2022-08-09T17:51:18.437Z,25.44
2022-08-09T17:53:52.856Z,25.32
2022-08-09T17:56:26.779Z,25.24
2022-08-09T17:58:59.626Z,25.25
2022-08-09T18:01:58.146Z,25.14
2022-08-09T18:04:20.101Z,25.11
2022-08-09T18:06:54.180Z,25.13
2022-08-09T18:09:25.003Z,24.56
2022-08-09T18:12:15.261Z,24.94
2022-08-09T18:14:53.429Z,24.56
2022-08-09T18:18:00.993Z,24.84
2022-08-09T18:20:54.368Z,24.71
2022-08-09T18:23:05.845Z,24.69
2022-08-09T18:25:52.903Z,24.53
2022-08-09T18:30:38.428Z,24.54
2022-08-09T18:31:19.090Z,24.47
2022-08-09T18:33:53.648Z,24.34
2022-08-09T18:36:31.844Z,24.29
2022-08-09T18:39:02.299Z,24.04
2022-08-09T18:41:34.158Z,24.06
2022-08-09T18:44:12.515Z,23.89
2022-08-09T18:46:49.010Z,23.77
2022-08-09T18:49:32.127Z,23.57
2022-08-09T18:52:12.082Z,23.23
2022-08-09T18:54:49.625Z,23.17
2022-08-09T18:57:21.903Z,22.64
2022-08-09T18:59:55.561Z,22.91
2022-08-09T19:02:32.394Z,22.75
2022-08-09T19:05:15.261Z,22.70
2022-08-09T19:08:04.369Z,22.48
2022-08-09T19:10:39.980Z,22.15
2022-08-09T19:13:22.694Z,22.28
2022-08-09T19:15:52.854Z,22.15
2022-08-09T19:18:33.159Z,22.10
2022-08-09T19:21:05.217Z,21.97
2022-08-09T19:24:36.496Z,21.83
2022-08-09T19:26:31.040Z,21.55
2022-08-09T19:29:03.074Z,21.58
2022-08-09T19:31:45.532Z,21.47
2022-08-09T19:34:18.291Z,21.48
2022-08-09T19:36:52.254Z,21.33
2022-08-09T19:39:43.242Z,21.08
2022-08-09T19:42:14.899Z,21.07
2022-08-09T19:44:50.576Z,21.08
2022-08-09T19:47:23.730Z,20.92
2022-08-09T19:50:06.884Z,20.88
2022-08-09T19:52:49.681Z,20.86
2022-08-09T19:55:30.442Z,20.73
2022-08-09T19:58:16.000Z,20.66
2022-08-09T20:00:46.415Z,20.54
2022-08-09T20:04:10.523Z,20.52
2022-08-09T20:06:04.842Z,20.46
2022-08-09T20:08:51.058Z,20.34
2022-08-09T20:11:20.651Z,20.29
2022-08-09T20:13:54.705Z,20.18
2022-08-09T20:16:37.127Z,20.08
2022-08-09T20:19:48.387Z,20.08
2022-08-09T20:22:01.066Z,20.02
2022-08-09T20:24:33.564Z,19.95
2022-08-09T20:27:08.210Z,19.91
2022-08-09T20:29:38.563Z,19.40
2022-08-09T20:32:29.196Z,19.46
2022-08-09T20:34:56.099Z,19.66
2022-08-09T20:37:24.836Z,19.40
2022-08-09T20:40:17.509Z,19.60
2022-08-09T20:42:53.143Z,19.49
2022-08-09T20:45:59.757Z,19.37
2022-08-09T20:48:21.088Z,19.43
2022-08-09T20:50:55.647Z,19.35
2022-08-09T20:53:36.220Z,19.21
2022-08-09T20:56:09.594Z,19.23
2022-08-09T20:58:58.267Z,19.23
2022-08-09T21:01:35.096Z,19.17
2022-08-09T21:05:54.868Z,19.19
2022-08-09T21:07:11.039Z,19.12
2022-08-09T21:09:45.116Z,19.06
2022-08-09T21:15:13.843Z,18.83
2022-08-09T21:18:22.399Z,18.53
2022-08-09T21:20:31.103Z,18.67
2022-08-09T21:23:00.320Z,18.52
2022-08-09T21:25:55.630Z,18.63
2022-08-09T21:28:34.529Z,18.28
2022-08-09T21:31:16.853Z,18.40
2022-08-09T21:33:51.710Z,18.02
2022-08-09T21:36:23.086Z,17.95
2022-08-09T21:38:58.049Z,18.42
2022-08-09T21:42:00.356Z,18.28
2022-08-09T21:44:33.799Z,18.31
2022-08-09T21:47:05.785Z,18.28
2022-08-09T21:49:40.351Z,18.23
2022-08-09T21:52:17.140Z,18.20
2022-08-09T21:54:51.014Z,18.14
2022-08-09T21:57:38.585Z,18.05
2022-08-09T22:00:26.016Z,17.97
2022-08-09T22:02:59.627Z,17.87
2022-08-09T22:05:35.392Z,17.88
2022-08-09T22:08:06.828Z,17.87
2022-08-09T22:11:49.108Z,17.74
2022-08-09T22:13:31.389Z,17.45
2022-08-09T22:16:04.273Z,17.46
2022-08-09T22:18:33.762Z,17.41
2022-08-09T22:21:01.796Z,17.79
2022-08-09T22:23:35.475Z,17.16
2022-08-09T22:26:12.295Z,17.59
2022-08-09T22:28:54.022Z,17.63
2022-08-09T22:31:22.572Z,17.49
2022-08-09T22:33:55.245Z,17.52
2022-08-09T22:36:23.920Z,17.34
2022-08-09T22:38:52.009Z,17.45
2022-08-09T22:41:20.460Z,16.89
2022-08-09T22:44:02.169Z,17.33
2022-08-09T22:48:12.377Z,17.12
2022-08-09T22:49:22.683Z,17.15
2022-08-09T22:51:57.214Z,17.03
2022-08-09T22:54:27.295Z,17.04
2022-08-09T22:56:58.677Z,17.01
2022-08-09T22:59:56.716Z,16.25
2022-08-09T23:02:20.024Z,16.95
2022-08-09T23:04:53.760Z,16.89
2022-08-09T23:08:23.174Z,16.92
2022-08-09T23:10:30.688Z,16.75
2022-08-09T23:12:58.748Z,16.61
2022-08-09T23:15:27.006Z,16.57
2022-08-09T23:17:55.106Z,15.78
2022-08-09T23:20:26.194Z,16.87
2022-08-09T23:22:54.259Z,16.82
2022-08-09T23:25:22.704Z,16.58
2022-08-09T23:28:09.321Z,16.59
2022-08-09T23:30:39.215Z,16.69
2022-08-09T23:33:07.261Z,16.55
2022-08-09T23:36:06.698Z,16.10
2022-08-09T23:38:24.809Z,16.47
2022-08-09T23:40:54.229Z,16.39
2022-08-09T23:43:22.629Z,16.28
2022-08-09T23:45:50.607Z,16.05
2022-08-09T23:48:19.732Z,16.33
2022-08-09T23:50:49.183Z,16.28
2022-08-09T23:53:17.464Z,15.86
2022-08-09T23:55:49.710Z,16.14
2022-08-09T23:58:29.588Z,16.13
